createdAt,value
2019-03-10T00:00:38.657Z,0.55
2019-03-10T00:03:07.102Z,0.60
2019-03-10T00:05:35.811Z,0.50
2019-03-10T00:08:04.309Z,0.70
2019-03-10T00:10:32.774Z,0.68
2019-03-10T00:13:01.309Z,0.50
2019-03-10T00:15:30.015Z,0.50
2019-03-10T00:17:58.457Z,0.60
2019-03-10T00:20:26.964Z,0.65
2019-03-10T00:22:55.468Z,0.40
2019-03-10T00:25:23.914Z,0.53
2019-03-10T00:27:52.346Z,0.60
2019-03-10T00:30:20.785Z,0.60
2019-03-10T00:32:49.222Z,0.50
2019-03-10T00:35:17.669Z,0.40
2019-03-10T00:37:46.109Z,0.70
2019-03-10T00:40:35.488Z,0.60
2019-03-10T00:43:26.333Z,0.57
2019-03-10T00:45:57.850Z,0.60
2019-03-10T00:48:32.158Z,0.78
2019-03-10T00:51:23.614Z,0.88
2019-03-10T00:53:52.061Z,0.50
2019-03-10T00:56:20.493Z,0.50
2019-03-10T00:58:48.926Z,0.70
2019-03-10T01:01:17.375Z,0.80
2019-03-10T01:03:45.806Z,0.80
2019-03-10T01:06:14.244Z,0.40
2019-03-10T01:08:42.682Z,0.50
2019-03-10T01:11:11.198Z,0.60
2019-03-10T01:13:40.058Z,1.00
2019-03-10T01:16:08.946Z,0.60
2019-03-10T01:18:37.745Z,0.72
2019-03-10T01:21:06.261Z,0.40
2019-03-10T01:23:34.949Z,0.60
2019-03-10T01:26:03.410Z,0.50
2019-03-10T01:28:32.175Z,0.40
2019-03-10T01:31:09.872Z,0.37
2019-03-10T01:34:05.513Z,0.30
2019-03-10T01:36:33.144Z,0.30
2019-03-10T01:39:06.367Z,0.40
2019-03-10T01:41:35.136Z,0.40
2019-03-10T01:44:03.560Z,0.62
2019-03-10T01:46:32.006Z,0.40
2019-03-10T01:49:00.434Z,0.45
2019-03-10T01:51:28.873Z,0.40
2019-03-10T01:53:58.140Z,0.47
2019-03-10T01:56:26.606Z,0.35
2019-03-10T01:58:55.057Z,0.40
2019-03-10T02:01:23.482Z,0.30
2019-03-10T02:03:51.945Z,0.68
2019-03-10T02:06:20.373Z,0.50
2019-03-10T02:08:49.142Z,0.50
2019-03-10T02:11:17.677Z,0.40
2019-03-10T02:13:46.142Z,0.57
2019-03-10T02:16:14.894Z,0.43
2019-03-10T02:18:43.363Z,0.37
2019-03-10T02:21:11.789Z,0.37
2019-03-10T02:23:40.226Z,0.40
2019-03-10T02:26:08.669Z,0.47
2019-03-10T02:28:37.092Z,0.50
2019-03-10T02:31:05.543Z,0.37
2019-03-10T02:33:34.536Z,0.50
2019-03-10T02:36:02.970Z,0.40
2019-03-10T02:38:31.748Z,0.40
2019-03-10T02:41:00.182Z,0.60
2019-03-10T02:43:28.608Z,0.35
2019-03-10T02:45:57.131Z,0.60
2019-03-10T02:48:25.566Z,0.55
2019-03-10T02:50:53.994Z,0.40
2019-03-10T02:53:22.427Z,0.47
2019-03-10T02:55:50.881Z,0.42
2019-03-10T02:58:19.374Z,0.50
2019-03-10T03:00:47.818Z,0.40
2019-03-10T03:03:16.254Z,0.57
2019-03-10T03:05:45.104Z,0.50
2019-03-10T03:08:16.710Z,0.50
2019-03-10T03:10:43.726Z,0.65
2019-03-10T03:13:12.148Z,0.55
2019-03-10T03:15:40.582Z,0.50
2019-03-10T03:18:09.297Z,0.70
2019-03-10T03:20:37.809Z,0.40
2019-03-10T03:23:06.239Z,0.60
2019-03-10T03:25:34.749Z,0.60
2019-03-10T03:28:03.183Z,0.42
2019-03-10T03:30:31.726Z,0.50
2019-03-10T03:33:00.602Z,0.53
2019-03-10T03:35:55.497Z,0.50
2019-03-10T03:38:32.900Z,0.40
2019-03-10T03:41:04.394Z,0.50
2019-03-10T03:43:32.827Z,0.40
2019-03-10T03:46:01.318Z,0.50
2019-03-10T03:48:29.800Z,0.50
2019-03-10T03:50:58.584Z,0.56
2019-03-10T03:53:27.030Z,0.60
2019-03-10T03:55:55.740Z,0.42
2019-03-10T03:58:24.171Z,0.60
2019-03-10T04:00:54.282Z,0.78
2019-03-10T04:03:22.705Z,0.85
2019-03-10T04:05:51.210Z,0.72
2019-03-10T04:08:19.724Z,1.30
2019-03-10T04:10:48.144Z,0.60
2019-03-10T04:13:16.586Z,0.80
2019-03-10T04:15:45.026Z,0.50
2019-03-10T04:18:13.719Z,0.35
2019-03-10T04:20:42.157Z,0.30
2019-03-10T04:23:10.602Z,0.30
2019-03-10T04:25:39.106Z,0.10
2019-03-10T04:28:07.547Z,0.20
2019-03-10T04:30:36.221Z,0.10
2019-03-10T04:33:04.662Z,0.30
2019-03-10T04:35:33.090Z,0.10
2019-03-10T04:38:01.530Z,0.20
2019-03-10T04:40:29.965Z,0.10
2019-03-10T04:42:58.411Z,0.20
2019-03-10T04:45:26.833Z,0.10
2019-03-10T04:47:55.364Z,0.20
2019-03-10T04:50:23.805Z,0.80
2019-03-10T04:52:52.250Z,0.13
2019-03-10T04:55:22.315Z,0.20
2019-03-10T04:57:58.114Z,0.28
2019-03-10T05:00:27.086Z,0.20
2019-03-10T05:02:55.518Z,0.25
2019-03-10T05:05:24.387Z,0.28
2019-03-10T05:07:52.816Z,0.30
2019-03-10T05:10:21.254Z,0.20
2019-03-10T05:12:50.033Z,0.23
2019-03-10T05:15:18.460Z,0.30
2019-03-10T05:17:46.895Z,0.10
2019-03-10T05:20:15.328Z,0.30
2019-03-10T05:22:43.760Z,0.28
2019-03-10T05:25:15.406Z,0.20
2019-03-10T05:27:43.840Z,0.10
2019-03-10T05:30:12.342Z,0.20
2019-03-10T05:32:40.781Z,0.23
2019-03-10T05:35:09.282Z,0.20
2019-03-10T05:37:37.725Z,0.20
2019-03-10T05:40:07.590Z,0.35
2019-03-10T05:42:36.038Z,0.30
2019-03-10T05:45:06.855Z,0.30
2019-03-10T05:47:35.318Z,0.30
2019-03-10T05:50:05.217Z,0.30
2019-03-10T05:52:33.725Z,0.20
2019-03-10T05:55:02.245Z,0.28
2019-03-10T05:57:30.929Z,0.60
2019-03-10T05:59:59.437Z,0.30
2019-03-10T06:02:28.167Z,0.50
2019-03-10T06:04:56.588Z,0.57
2019-03-10T06:07:25.273Z,0.40
2019-03-10T06:09:53.707Z,0.20
2019-03-10T06:12:22.146Z,0.30
2019-03-10T06:14:50.892Z,0.20
2019-03-10T06:17:21.362Z,0.35
2019-03-10T06:19:49.998Z,0.40
2019-03-10T06:22:18.464Z,0.30
2019-03-10T06:24:46.938Z,0.30
2019-03-10T06:27:15.379Z,0.20
2019-03-10T06:29:43.801Z,0.20
2019-03-10T06:32:12.236Z,0.30
2019-03-10T06:34:40.681Z,0.25
2019-03-10T06:37:09.111Z,0.40
2019-03-10T06:39:37.845Z,0.60
2019-03-10T06:42:06.272Z,0.68
2019-03-10T06:44:34.967Z,0.55
2019-03-10T06:47:03.398Z,0.80
2019-03-10T06:49:32.212Z,1.10
2019-03-10T06:52:00.697Z,0.90
2019-03-10T06:54:29.137Z,0.50
2019-03-10T06:56:57.571Z,0.57
2019-03-10T06:59:26.026Z,0.55
2019-03-10T07:01:54.801Z,0.95
2019-03-10T07:04:23.220Z,1.60
2019-03-10T07:06:51.666Z,1.65
2019-03-10T07:09:20.103Z,1.80
2019-03-10T07:11:48.535Z,1.95
2019-03-10T07:14:17.320Z,1.80
2019-03-10T07:16:45.739Z,1.95
2019-03-10T07:19:14.173Z,2.55
2019-03-10T07:21:42.618Z,2.22
2019-03-10T07:24:11.065Z,32.38
2019-03-10T07:26:39.763Z,105.50
2019-03-10T07:29:09.849Z,31.33
2019-03-10T07:31:42.647Z,76.47
2019-03-10T07:34:12.738Z,49.63
2019-03-10T07:36:45.382Z,9.70
2019-03-10T07:39:15.453Z,13.18
2019-03-10T07:42:03.587Z,6.67
2019-03-10T07:44:36.214Z,5.40
2019-03-10T07:47:12.053Z,8.50
2019-03-10T07:49:42.143Z,4.15
2019-03-10T07:52:20.384Z,8.08
2019-03-10T07:54:56.012Z,6.50
2019-03-10T07:57:26.111Z,5.70
2019-03-10T07:59:56.169Z,5.72
2019-03-10T08:02:38.067Z,3.90
2019-03-10T08:05:23.826Z,2.90
2019-03-10T08:07:54.242Z,2.60
2019-03-10T08:10:24.342Z,3.42
2019-03-10T08:12:54.674Z,9.28
2019-03-10T08:15:25.001Z,3.52
2019-03-10T08:17:55.073Z,10.05
2019-03-10T08:20:25.159Z,6.12
2019-03-10T08:22:55.230Z,9.33
2019-03-10T08:25:28.182Z,5.03
2019-03-10T08:28:07.177Z,4.90
2019-03-10T08:30:37.262Z,3.30
2019-03-10T08:33:23.893Z,3.08
2019-03-10T08:35:59.949Z,2.75
2019-03-10T08:38:41.809Z,3.75
2019-03-10T08:41:17.866Z,8.58
2019-03-10T08:43:50.894Z,4.75
2019-03-10T08:46:21.253Z,6.83
2019-03-10T08:48:54.275Z,58.17
2019-03-10T08:51:24.358Z,28.52
2019-03-10T08:54:00.145Z,25.25
2019-03-10T08:56:39.271Z,54.80
2019-03-10T08:59:09.344Z,4.50
2019-03-10T09:01:50.927Z,6.65
2019-03-10T09:04:33.238Z,7.60
2019-03-10T09:07:09.312Z,13.03
2019-03-10T09:09:55.965Z,5.00
2019-03-10T09:12:26.118Z,2.67
2019-03-10T09:15:02.199Z,7.78
2019-03-10T09:17:35.253Z,13.28
2019-03-10T09:20:09.418Z,4.20
2019-03-10T09:22:39.531Z,4.53
2019-03-10T09:25:15.445Z,4.20
2019-03-10T09:28:00.499Z,6.33
2019-03-10T09:30:45.876Z,4.53
2019-03-10T09:33:25.163Z,2.40
2019-03-10T09:35:55.504Z,1.82
2019-03-10T09:38:31.386Z,2.25
2019-03-10T09:41:04.165Z,1.87
2019-03-10T09:43:50.586Z,1.82
2019-03-10T09:46:23.617Z,2.05
2019-03-10T09:48:59.175Z,2.05
2019-03-10T09:51:31.982Z,1.72
2019-03-10T09:54:18.301Z,1.92
2019-03-10T09:56:57.678Z,12.65
2019-03-10T09:59:36.549Z,1.82
2019-03-10T10:02:09.309Z,1.30
2019-03-10T10:04:57.689Z,19.70
2019-03-10T10:07:36.580Z,31.20
2019-03-10T10:10:17.726Z,3.27
2019-03-10T10:12:48.075Z,4.53
2019-03-10T10:15:27.109Z,14.98
2019-03-10T10:20:50.366Z,2.20
2019-03-10T10:23:23.634Z,1.57
2019-03-10T10:26:11.090Z,1.57
2019-03-10T10:28:47.313Z,1.60
2019-03-10T10:31:23.216Z,3.30
2019-03-10T10:33:53.321Z,2.87
2019-03-10T10:36:26.667Z,4.10
2019-03-10T10:39:05.537Z,4.40
2019-03-10T10:41:52.327Z,3.85
2019-03-10T10:44:25.129Z,2.25
2019-03-10T10:46:55.209Z,2.98
2019-03-10T10:49:28.402Z,2.45
2019-03-10T10:52:10.508Z,2.37
2019-03-10T10:54:46.061Z,6.10
2019-03-10T10:57:16.146Z,2.27
2019-03-10T10:59:53.115Z,2.70
2019-03-10T11:02:23.189Z,2.72
2019-03-10T11:05:08.620Z,13.80
2019-03-10T11:07:53.405Z,40.70
2019-03-10T11:10:23.757Z,7.10
2019-03-10T11:13:05.604Z,5.53
2019-03-10T11:15:35.669Z,3.87
2019-03-10T11:18:14.286Z,5.45
2019-03-10T11:20:53.334Z,4.30
2019-03-10T11:23:26.269Z,5.62
2019-03-10T11:26:05.224Z,4.30
2019-03-10T11:28:38.512Z,4.87
2019-03-10T11:31:14.188Z,4.62
2019-03-10T11:33:44.605Z,4.58
2019-03-10T11:36:17.445Z,4.80
2019-03-10T11:38:59.343Z,5.22
2019-03-10T11:41:33.797Z,4.60
2019-03-10T11:44:03.925Z,4.83
2019-03-10T11:46:36.921Z,3.83
2019-03-10T11:49:13.065Z,3.85
2019-03-10T11:51:55.099Z,3.30
2019-03-10T11:54:40.240Z,3.77
2019-03-10T11:57:13.053Z,3.85
2019-03-10T11:59:46.228Z,3.75
2019-03-10T12:02:32.690Z,5.47
2019-03-10T12:05:05.742Z,8.03
2019-03-10T12:07:44.638Z,5.03
2019-03-10T12:10:13.169Z,4.20
2019-03-10T12:12:41.597Z,8.15
2019-03-10T12:15:12.893Z,9.73
2019-03-10T12:20:11.608Z,31.85
2019-03-10T12:22:40.066Z,25.03
2019-03-10T12:25:11.900Z,30.30
2019-03-10T12:27:40.351Z,35.15
2019-03-10T12:30:11.420Z,15.15
2019-03-10T12:32:39.885Z,38.47
2019-03-10T12:35:08.802Z,41.33
2019-03-10T12:37:37.268Z,38.42
2019-03-10T12:40:08.848Z,12.40
2019-03-10T12:42:37.623Z,5.42
2019-03-10T12:45:08.534Z,2.95
2019-03-10T12:47:37.033Z,10.38
2019-03-10T12:50:09.068Z,6.17
2019-03-10T12:52:38.370Z,6.65
2019-03-10T12:55:09.088Z,5.08
2019-03-10T12:57:38.041Z,3.62
2019-03-10T13:00:14.929Z,11.25
2019-03-10T13:05:58.439Z,5.83
2019-03-10T13:08:27.806Z,6.20
2019-03-10T13:10:57.008Z,2.90
2019-03-10T13:17:19.222Z,3.40
2019-03-10T13:19:47.738Z,4.03
2019-03-10T13:22:16.167Z,4.35
2019-03-10T13:24:44.591Z,3.90
2019-03-10T13:27:13.144Z,4.22
2019-03-10T13:29:41.704Z,3.85
2019-03-10T13:32:10.446Z,3.98
2019-03-10T13:34:38.872Z,4.33
2019-03-10T13:37:07.488Z,4.20
2019-03-10T13:39:36.332Z,4.78
2019-03-10T13:42:04.853Z,10.35
2019-03-10T13:44:33.290Z,5.10
2019-03-10T13:47:01.888Z,8.03
2019-03-10T13:49:30.760Z,12.20
2019-03-10T13:51:59.266Z,5.92
2019-03-10T13:54:47.030Z,15.63
2019-03-10T13:57:15.549Z,12.75
2019-03-10T13:59:43.985Z,24.75
2019-03-10T14:02:12.759Z,7.53
2019-03-10T14:04:41.244Z,7.28
2019-03-10T14:17:12.020Z,37.93
2019-03-10T14:19:33.048Z,6.87
2019-03-10T14:22:01.786Z,6.53
2019-03-10T14:24:30.213Z,3.52
2019-03-10T14:26:58.670Z,7.72
2019-03-10T14:29:27.093Z,12.95
2019-03-10T14:31:55.541Z,8.05
2019-03-10T14:34:24.042Z,10.60
2019-03-10T14:36:52.502Z,8.75
2019-03-10T14:39:21.278Z,7.62
2019-03-10T14:41:50.071Z,3.10
2019-03-10T14:44:18.502Z,2.00
2019-03-10T14:46:47.520Z,0.70
2019-03-10T14:49:22.973Z,0.70
2019-03-10T14:51:46.196Z,0.42
2019-03-10T14:54:14.634Z,0.30
2019-03-10T14:56:43.081Z,0.50
2019-03-10T14:59:11.509Z,0.53
2019-03-10T15:01:39.948Z,0.30
2019-03-10T15:04:08.379Z,0.40
2019-03-10T15:06:38.554Z,0.20
2019-03-10T15:09:08.334Z,0.30
2019-03-10T15:11:36.780Z,0.10
2019-03-10T15:14:05.282Z,0.25
2019-03-10T15:16:33.709Z,0.10
2019-03-10T15:19:02.148Z,0.25
2019-03-10T15:21:30.594Z,0.20
2019-03-10T15:23:59.038Z,0.20
2019-03-10T15:26:27.636Z,0.10
2019-03-10T15:28:56.081Z,0.20
2019-03-10T15:31:24.514Z,0.23
2019-03-10T15:33:52.957Z,0.30
2019-03-10T15:36:21.407Z,0.20
2019-03-10T15:38:49.854Z,0.17
2019-03-10T15:41:18.558Z,0.20
2019-03-10T15:43:47.006Z,0.20
2019-03-10T15:46:15.470Z,0.30
2019-03-10T15:48:43.917Z,0.10
2019-03-10T15:51:12.357Z,0.07
2019-03-10T15:53:40.797Z,0.10
2019-03-10T15:56:09.492Z,0.20
2019-03-10T15:58:38.014Z,0.15
2019-03-10T16:01:06.451Z,0.37
2019-03-10T16:03:35.201Z,0.17
2019-03-10T16:06:03.638Z,0.10
2019-03-10T16:08:32.077Z,0.10
2019-03-10T16:11:00.516Z,0.30
2019-03-10T16:13:28.950Z,0.25
2019-03-10T16:15:57.716Z,0.28
2019-03-10T16:18:26.517Z,0.50
2019-03-10T16:20:55.210Z,0.28
2019-03-10T16:23:23.745Z,0.50
2019-03-10T16:25:52.180Z,0.45
2019-03-10T16:28:20.642Z,0.37
2019-03-10T16:30:49.103Z,0.10
2019-03-10T16:33:19.096Z,0.20
2019-03-10T16:35:47.835Z,0.20
2019-03-10T16:38:16.292Z,0.23
2019-03-10T16:40:44.718Z,0.25
2019-03-10T16:43:13.415Z,0.10
2019-03-10T16:45:41.840Z,0.30
2019-03-10T16:48:10.274Z,0.15
2019-03-10T16:50:38.713Z,0.30
2019-03-10T16:53:07.163Z,0.20
2019-03-10T16:55:35.588Z,0.40
2019-03-10T16:58:04.037Z,0.20
2019-03-10T17:00:32.545Z,0.35
2019-03-10T17:03:00.996Z,0.40
2019-03-10T17:05:29.488Z,0.50
2019-03-10T17:07:57.949Z,0.28
2019-03-10T17:10:27.023Z,0.40
2019-03-10T17:12:55.540Z,0.30
2019-03-10T17:15:24.911Z,0.60
2019-03-10T17:17:53.485Z,0.33
2019-03-10T17:20:21.980Z,0.40
2019-03-10T17:22:50.837Z,0.30
2019-03-10T17:25:19.405Z,0.30
2019-03-10T17:27:48.109Z,0.30
2019-03-10T17:30:21.551Z,0.40
2019-03-10T17:32:50.067Z,0.53
2019-03-10T17:35:19.336Z,0.17
2019-03-10T17:37:48.724Z,0.50
2019-03-10T17:40:20.050Z,0.20
2019-03-10T17:42:48.545Z,0.30
2019-03-10T17:45:18.851Z,0.47
2019-03-10T17:47:47.549Z,0.40
2019-03-10T17:50:18.197Z,0.40
2019-03-10T17:52:47.679Z,0.50
2019-03-10T17:55:24.337Z,0.60
2019-03-10T17:57:52.769Z,0.30
2019-03-10T18:00:29.146Z,0.47
2019-03-10T18:02:57.593Z,0.50
2019-03-10T18:05:26.022Z,0.57
2019-03-10T18:07:54.609Z,0.40
2019-03-10T18:10:23.066Z,0.40
2019-03-10T18:12:51.493Z,0.45
2019-03-10T18:15:20.082Z,0.60
2019-03-10T18:17:48.646Z,0.40
2019-03-10T18:20:19.545Z,0.70
2019-03-10T18:22:47.961Z,0.47
2019-03-10T18:25:16.609Z,0.40
2019-03-10T18:27:45.124Z,0.60
2019-03-10T18:30:21.981Z,0.50
2019-03-10T18:32:50.439Z,0.70
2019-03-10T18:35:18.898Z,0.60
2019-03-10T18:37:47.393Z,0.30
2019-03-10T18:40:23.016Z,0.70
2019-03-10T18:42:51.506Z,0.60
2019-03-10T18:45:20.404Z,0.60
2019-03-10T18:47:49.215Z,0.80
2019-03-10T18:50:18.955Z,0.70
2019-03-10T18:52:47.684Z,1.00
2019-03-10T18:55:17.365Z,0.47
2019-03-10T18:57:45.883Z,0.80
2019-03-10T19:00:26.439Z,0.45
2019-03-10T19:02:54.989Z,0.45
2019-03-10T19:05:23.690Z,0.23
2019-03-10T19:07:52.270Z,0.53
2019-03-10T19:10:20.708Z,0.30
2019-03-10T19:12:49.232Z,0.60
2019-03-10T19:15:37.095Z,0.47
2019-03-10T19:18:05.796Z,0.70
2019-03-10T19:20:34.610Z,0.70
2019-03-10T19:23:03.038Z,0.25
2019-03-10T19:25:31.850Z,0.80
2019-03-10T19:28:00.310Z,0.72
2019-03-10T19:30:29.198Z,0.72
2019-03-10T19:32:57.953Z,0.65
2019-03-10T19:35:26.418Z,0.70
2019-03-10T19:37:54.946Z,0.70
2019-03-10T19:40:24.169Z,0.60
2019-03-10T19:42:52.605Z,0.88
2019-03-10T19:45:22.970Z,0.60
2019-03-10T19:47:51.406Z,0.50
2019-03-10T19:50:22.475Z,0.80
2019-03-10T19:53:12.219Z,1.07
2019-03-10T19:55:41.022Z,0.62
2019-03-10T19:58:09.452Z,0.70
2019-03-10T20:00:37.913Z,0.90
2019-03-10T20:03:06.342Z,0.80
2019-03-10T20:05:34.805Z,0.90
2019-03-10T20:08:03.237Z,0.95
2019-03-10T20:10:31.684Z,0.82
2019-03-10T20:13:00.134Z,0.62
2019-03-10T20:15:28.631Z,0.55
2019-03-10T20:17:57.396Z,1.05
2019-03-10T20:20:30.566Z,0.90
2019-03-10T20:23:01.008Z,1.05
2019-03-10T20:25:33.874Z,1.15
2019-03-10T20:28:02.302Z,0.70
2019-03-10T20:30:30.760Z,0.90
2019-03-10T20:32:59.622Z,1.20
2019-03-10T20:35:28.151Z,0.70
2019-03-10T20:37:56.574Z,1.25
2019-03-10T20:40:28.880Z,0.85
2019-03-10T20:42:57.374Z,0.88
2019-03-10T20:45:26.126Z,1.35
2019-03-10T20:47:56.567Z,1.50
2019-03-10T20:50:24.731Z,1.17
2019-03-10T20:52:53.163Z,0.82
2019-03-10T20:55:21.634Z,0.88
2019-03-10T20:57:50.326Z,0.60
2019-03-10T21:00:21.570Z,0.95
2019-03-10T21:02:50.086Z,0.95
2019-03-10T21:05:19.098Z,1.60
2019-03-10T21:07:47.537Z,0.90
2019-03-10T21:10:18.406Z,1.52
2019-03-10T21:12:46.866Z,0.65
2019-03-10T21:15:19.985Z,1.02
2019-03-10T21:17:48.435Z,1.45
2019-03-10T21:20:18.894Z,1.40
2019-03-10T21:22:47.513Z,1.50
2019-03-10T21:25:18.572Z,0.53
2019-03-10T21:27:47.147Z,1.10
2019-03-10T21:30:18.462Z,1.22
2019-03-10T21:32:46.899Z,1.50
2019-03-10T21:35:17.948Z,1.30
2019-03-10T21:37:45.573Z,1.52
2019-03-10T21:40:22.718Z,1.15
2019-03-10T21:42:51.404Z,1.45
2019-03-10T21:45:19.921Z,1.37
2019-03-10T21:47:48.687Z,1.05
2019-03-10T21:50:18.272Z,1.57
2019-03-10T21:52:46.706Z,1.37
2019-03-10T21:55:16.099Z,1.40
2019-03-10T21:57:44.534Z,1.30
2019-03-10T22:00:14.601Z,1.92
2019-03-10T22:02:43.035Z,0.90
2019-03-10T22:05:12.931Z,1.50
2019-03-10T22:07:41.423Z,1.47
2019-03-10T22:10:26.298Z,1.95
2019-03-10T22:12:47.436Z,1.02
2019-03-10T22:15:17.271Z,1.32
2019-03-10T22:17:45.699Z,1.45
2019-03-10T22:20:19.497Z,1.32
2019-03-10T22:22:50.018Z,0.95
2019-03-10T22:25:18.098Z,1.00
2019-03-10T22:27:46.653Z,1.45
2019-03-10T22:30:22.078Z,1.52
2019-03-10T22:32:50.745Z,1.82
2019-03-10T22:35:19.264Z,0.95
2019-03-10T22:37:47.792Z,1.42
2019-03-10T22:40:17.317Z,1.65
2019-03-10T22:42:45.918Z,1.42
2019-03-10T22:45:18.808Z,1.25
2019-03-10T22:47:47.260Z,1.35
2019-03-10T22:50:16.418Z,1.62
2019-03-10T22:52:45.033Z,1.67
2019-03-10T22:55:14.226Z,1.10
2019-03-10T22:57:43.031Z,0.88
2019-03-10T23:00:14.408Z,1.30
2019-03-10T23:02:43.219Z,1.62
2019-03-10T23:05:12.185Z,1.72
2019-03-10T23:07:40.681Z,2.70
2019-03-10T23:10:13.934Z,1.87
2019-03-10T23:12:42.550Z,1.75
2019-03-10T23:15:13.576Z,2.02
2019-03-10T23:17:42.021Z,1.40
2019-03-10T23:20:15.454Z,1.60
2019-03-10T23:22:43.922Z,1.65
2019-03-10T23:25:12.415Z,1.82
2019-03-10T23:27:40.875Z,1.62
2019-03-10T23:30:18.163Z,1.85
2019-03-10T23:32:46.702Z,1.07
2019-03-10T23:35:15.131Z,1.82
2019-03-10T23:37:43.579Z,1.90
2019-03-10T23:40:13.859Z,1.72
2019-03-10T23:42:42.317Z,1.20
2019-03-10T23:45:13.306Z,1.35
2019-03-10T23:47:41.777Z,1.70
2019-03-10T23:50:13.546Z,1.47
2019-03-10T23:52:41.972Z,1.95
2019-03-10T23:55:12.448Z,1.67
2019-03-10T23:57:40.862Z,1.60
